Time;durP1;ratioP1;P1;durP2;ratioP2;P2;SDS_P1;SDS_P2;PMS_P1;PMS_P2;Temp;Humidity;BMP_temperature;BMP_pressure;BME280_temperature;BME280_humidity;BME280_pressure;Samples;Min_cycle;Max_cycle;Signal;HPM_P1;HPM_P2
2022/05/27 00:02:14;;;;;;;17.45;2.30;;;11.50;79.50;;;;;;4093854;28;20118;-82
2022/05/27 00:04:36;;;;;;;10.10;1.85;;;11.50;79.60;;;;;;4096825;28;20797;-82
2022/05/27 00:06:57;;;;;;;8.65;1.92;;;11.60;79.40;;;;;;4091513;28;20051;-80
2022/05/27 00:09:18;;;;;;;9.27;1.75;;;11.50;79.20;;;;;;4086537;28;20036;-80
2022/05/27 00:11:39;;;;;;;19.38;2.17;;;11.60;79.00;;;;;;4087682;28;20135;-81
2022/05/27 00:13:59;;;;;;;13.73;2.03;;;11.60;78.70;;;;;;4091474;28;20023;-81
2022/05/27 00:16:20;;;;;;;16.52;2.10;;;11.60;78.60;;;;;;4094610;28;20038;-82
2022/05/27 00:18:41;;;;;;;14.27;1.65;;;11.60;78.10;;;;;;4088556;28;20042;-80
2022/05/27 00:21:03;;;;;;;14.45;1.88;;;11.60;77.80;;;;;;4090234;28;20031;-82
2022/05/27 00:23:23;;;;;;;23.02;2.42;;;11.60;77.50;;;;;;4095876;28;20545;-81
2022/05/27 00:25:44;;;;;;;14.75;2.20;;;11.60;77.20;;;;;;4094759;28;20070;-81
2022/05/27 00:27:46;;;;;;;11.15;2.05;;;11.60;77.10;;;;;;4089088;28;20413;-82
2022/05/27 00:29:46;;;;;;;20.27;2.67;;;11.50;76.90;;;;;;4090329;28;20038;-81
2022/05/27 00:31:53;;;;;;;9.18;1.63;;;11.50;76.70;;;;;;4096023;28;20524;-83
2022/05/27 00:33:53;;;;;;;13.77;2.10;;;11.50;76.80;;;;;;4096263;28;20082;-82
2022/05/27 00:35:54;;;;;;;11.35;1.70;;;11.50;76.80;;;;;;4094083;28;20035;-82
2022/05/27 00:38:15;;;;;;;14.82;2.28;;;11.50;76.70;;;;;;4092877;28;20458;-83
2022/05/27 00:40:42;;;;;;;16.40;2.22;;;11.50;76.60;;;;;;4092428;28;20197;-84
2022/05/27 00:43:03;;;;;;;11.73;1.88;;;11.40;76.30;;;;;;4110262;28;20062;-81
2022/05/27 00:45:26;;;;;;;16.88;2.78;;;11.40;76.10;;;;;;4092614;28;20031;-82
2022/05/27 00:47:50;;;;;;;;;;;11.40;75.90;;;;;;4099756;28;20412;-82
2022/05/27 00:50:15;;;;;;;13.05;2.15;;;11.40;76.00;;;;;;4084334;28;20278;-80
2022/05/27 00:52:37;;;;;;;15.45;2.10;;;11.40;75.50;;;;;;4104044;28;20030;-82
2022/05/27 00:54:40;;;;;;;11.77;2.27;;;11.30;75.30;;;;;;4091929;28;20031;-82
2022/05/27 00:56:44;;;;;;;14.23;2.28;;;11.30;75.40;;;;;;4105091;28;20045;-82
2022/05/27 00:58:51;;;;;;;10.95;2.20;;;11.30;75.30;;;;;;4092071;28;20038;-81
2022/05/27 01:00:52;;;;;;;14.70;2.65;;;11.20;75.40;;;;;;4082983;28;20034;-80
2022/05/27 01:02:55;;;;;;;13.02;2.15;;;11.30;75.40;;;;;;4094184;28;20027;-81
2022/05/27 01:04:58;;;;;;;17.13;2.25;;;11.20;75.40;;;;;;4091968;28;20042;-80
2022/05/27 01:07:19;;;;;;;15.37;2.40;;;11.20;75.40;;;;;;4086324;28;20054;-82
2022/05/27 01:09:43;;;;;;;18.58;2.20;;;11.20;75.30;;;;;;4091253;28;20055;-80
2022/05/27 01:12:06;;;;;;;17.02;2.97;;;11.20;75.30;;;;;;4090771;28;20031;-82
2022/05/27 01:14:57;;;;;;;12.30;2.25;;;11.20;75.00;;;;;;4092198;28;20035;-81
2022/05/27 01:18:05;;;;;;;19.73;2.30;;;11.10;74.80;;;;;;4090802;28;20054;-81
2022/05/27 01:20:32;;;;;;;12.18;2.25;;;11.10;74.70;;;;;;4098778;28;20125;-80
2022/05/27 01:23:06;;;;;;;24.20;2.53;;;11.10;74.30;;;;;;4095615;28;20799;-80
2022/05/27 01:26:03;;;;;;;17.92;2.25;;;11.10;74.30;;;;;;4093923;28;20035;-81
2022/05/27 01:28:49;;;;;;;13.88;2.53;;;11.00;74.10;;;;;;4103224;28;20031;-81
2022/05/27 01:31:23;;;;;;;16.58;2.20;;;11.00;74.00;;;;;;4094087;28;20528;-81
2022/05/27 01:34:06;;;;;;;17.48;2.20;;;11.00;73.80;;;;;;4109758;28;20035;-81
2022/05/27 01:36:29;;;;;;;10.68;2.17;;;11.00;73.80;;;;;;4095626;28;21852;-81
2022/05/27 01:38:56;;;;;;;15.80;1.83;;;10.90;73.60;;;;;;4104343;28;22188;-80
2022/05/27 01:41:17;;;;;;;14.05;1.80;;;10.80;73.50;;;;;;4097303;28;20027;-81
2022/05/27 01:43:56;;;;;;;9.50;1.58;;;10.90;73.50;;;;;;4096665;28;20043;-81
2022/05/27 01:46:24;;;;;;;14.23;2.22;;;10.80;73.40;;;;;;4096488;28;20114;-80
2022/05/27 01:49:04;;;;;;;12.07;1.80;;;10.80;73.40;;;;;;4100035;28;20046;-81
2022/05/27 01:51:33;;;;;;;16.15;1.83;;;10.70;73.20;;;;;;4099640;28;20459;-82
2022/05/27 01:54:14;;;;;;;15.80;2.70;;;10.70;73.20;;;;;;4095615;28;20513;-81
2022/05/27 01:56:59;;;;;;;22.08;1.88;;;10.70;73.20;;;;;;4098466;28;20054;-80
2022/05/27 01:59:28;;;;;;;13.82;1.95;;;10.60;73.20;;;;;;4095727;28;20127;-81
2022/05/27 02:01:57;;;;;;;14.63;2.22;;;10.60;73.10;;;;;;4099207;28;20043;-80
2022/05/27 02:04:11;;;;;;;18.27;2.35;;;10.60;73.00;;;;;;4109275;28;20034;-82
2022/05/27 02:06:14;;;;;;;17.02;2.35;;;10.50;73.20;;;;;;4113026;28;20165;-81
2022/05/27 02:08:20;;;;;;;12.50;1.77;;;10.50;73.00;;;;;;4099892;29;20075;-82
2022/05/27 02:10:36;;;;;;;21.40;1.90;;;10.50;73.20;;;;;;4110915;28;20157;-80
2022/05/27 02:12:52;;;;;;;11.65;1.80;;;10.50;73.20;;;;;;4114652;28;20031;-82
2022/05/27 02:15:28;;;;;;;;;;;10.50;73.20;;;;;;4090669;28;20057;-82
2022/05/27 02:17:56;;;;;;;32.95;2.30;;;10.50;73.20;;;;;;4102332;28;19917;-81
2022/05/27 02:20:23;;;;;;;18.02;2.70;;;10.50;72.80;;;;;;4092875;28;20066;-80
2022/05/27 02:23:03;;;;;;;14.15;1.95;;;10.40;72.90;;;;;;4098544;28;20042;-81
2022/05/27 02:25:34;;;;;;;18.35;2.28;;;10.40;72.90;;;;;;4094968;28;20042;-82
2022/05/27 02:28:08;;;;;;;9.38;1.50;;;10.40;72.90;;;;;;4099472;28;20043;-82
2022/05/27 02:30:32;;;;;;;17.25;2.20;;;10.30;72.90;;;;;;4093677;28;20039;-82
2022/05/27 02:35:57;;;;;;;16.90;2.50;;;10.30;73.00;;;;;;4094563;28;20393;-81
2022/05/27 02:38:18;;;;;;;13.20;2.20;;;10.20;72.90;;;;;;4095506;28;20051;-82
2022/05/27 02:40:58;;;;;;;12.93;1.92;;;10.20;72.90;;;;;;4097011;28;20032;-82
2022/05/27 02:43:31;;;;;;;17.45;2.58;;;10.20;73.00;;;;;;4106839;28;20035;-81
2022/05/27 02:46:08;;;;;;;17.90;2.63;;;10.20;72.90;;;;;;4092740;28;20162;-81
2022/05/27 02:48:33;;;;;;;19.77;2.22;;;10.20;73.00;;;;;;4099462;28;20023;-82
2022/05/27 02:50:37;;;;;;;17.73;2.60;;;10.10;73.00;;;;;;4091718;28;20045;-81
2022/05/27 02:53:26;;;;;;;19.70;2.50;;;10.10;72.90;;;;;;4093084;28;20071;-80
2022/05/27 02:56:09;;;;;;;22.52;2.45;;;10.10;72.90;;;;;;4095058;28;20043;-82
2022/05/27 02:58:31;;;;;;;13.20;2.70;;;10.10;72.90;;;;;;4095173;28;20031;-82
2022/05/27 03:00:51;;;;;;;14.77;2.20;;;10.10;72.80;;;;;;4093328;28;20107;-80
2022/05/27 03:02:59;;;;;;;19.35;2.72;;;10.00;72.80;;;;;;4112824;28;20030;-81
2022/05/27 03:05:25;;;;;;;18.30;2.10;;;10.00;72.80;;;;;;4093419;28;20248;-80
2022/05/27 03:08:08;;;;;;;14.90;2.10;;;10.00;72.80;;;;;;4093123;28;20035;-81
2022/05/27 03:11:00;;;;;;;15.20;2.30;;;10.00;72.80;;;;;;4095357;28;20039;-80
2022/05/27 03:13:42;;;;;;;16.05;2.13;;;10.00;72.80;;;;;;4111762;28;20023;-83
2022/05/27 03:15:54;;;;;;;23.27;2.47;;;10.00;72.70;;;;;;4096342;28;20071;-82
2022/05/27 03:18:06;;;;;;;26.25;2.65;;;9.90;72.70;;;;;;4095348;28;20027;-81
2022/05/27 03:20:24;;;;;;;20.23;2.15;;;9.90;72.70;;;;;;4110954;28;20023;-82
2022/05/27 03:22:59;;;;;;;16.20;2.78;;;9.90;72.70;;;;;;4103141;28;20130;-79
2022/05/27 03:25:32;;;;;;;20.48;2.35;;;9.90;72.70;;;;;;4098311;28;20038;-80
2022/05/27 03:28:01;;;;;;;16.25;2.20;;;9.90;72.80;;;;;;4095847;28;20036;-81
2022/05/27 03:30:32;;;;;;;21.05;2.17;;;9.80;72.60;;;;;;4092518;28;20031;-81
2022/05/27 03:33:09;;;;;;;17.02;2.25;;;9.80;72.60;;;;;;4095589;28;20456;-81
2022/05/27 03:35:39;;;;;;;18.15;2.30;;;9.80;72.70;;;;;;4098237;28;20074;-82
2022/05/27 03:37:57;;;;;;;23.02;1.92;;;9.80;72.70;;;;;;4099767;28;20039;-79
2022/05/27 03:40:25;;;;;;;21.45;2.83;;;9.80;72.80;;;;;;4104180;28;20651;-81
2022/05/27 03:42:45;;;;;;;16.40;2.45;;;9.80;72.80;;;;;;4104928;28;20131;-81
2022/05/27 03:45:12;;;;;;;20.30;2.70;;;9.80;72.90;;;;;;4093100;28;20023;-80
2022/05/27 03:47:34;;;;;;;24.42;2.30;;;9.80;72.90;;;;;;4094792;28;20098;-80
2022/05/27 03:49:55;;;;;;;18.98;2.38;;;9.80;73.00;;;;;;4094415;28;20031;-80
2022/05/27 03:52:20;;;;;;;18.20;2.90;;;9.80;73.20;;;;;;4092262;28;20186;-80
2022/05/27 03:54:40;;;;;;;14.95;2.75;;;9.80;73.20;;;;;;4095037;28;20034;-80
2022/05/27 03:57:01;;;;;;;16.42;2.55;;;9.80;73.30;;;;;;4092642;28;20039;-80
2022/05/27 03:59:22;;;;;;;20.48;3.22;;;9.80;73.30;;;;;;4090343;28;20106;-80
2022/05/27 04:01:47;;;;;;;17.73;2.55;;;9.90;73.50;;;;;;4090173;28;20027;-81
2022/05/27 04:04:10;;;;;;;21.58;3.00;;;9.90;73.50;;;;;;4093239;28;20307;-81
2022/05/27 04:06:31;;;;;;;18.00;2.80;;;10.00;73.90;;;;;;4101220;28;20062;-80
2022/05/27 04:08:52;;;;;;;24.58;3.08;;;9.90;73.60;;;;;;4095178;28;20046;-80
2022/05/27 04:11:12;;;;;;;28.13;3.15;;;10.00;73.70;;;;;;4095607;28;20039;-81
2022/05/27 04:13:33;;;;;;;22.92;2.50;;;10.00;73.80;;;;;;4088647;28;20143;-81
2022/05/27 04:15:34;;;;;;;22.85;2.83;;;10.00;73.70;;;;;;4088814;28;20166;-80
2022/05/27 04:17:34;;;;;;;17.70;2.92;;;10.10;73.80;;;;;;4099253;28;20450;-81
2022/05/27 04:19:55;;;;;;;18.42;2.72;;;10.10;73.70;;;;;;4095898;28;20035;-81
2022/05/27 04:21:56;;;;;;;22.95;2.35;;;10.20;73.70;;;;;;4093496;28;20047;-80
2022/05/27 04:24:16;;;;;;;17.13;2.45;;;10.20;73.50;;;;;;4090461;28;20059;-81
2022/05/27 04:26:37;;;;;;;13.98;2.60;;;10.20;73.50;;;;;;4094052;28;20528;-82
2022/05/27 04:28:58;;;;;;;20.83;2.47;;;10.30;73.50;;;;;;4095929;28;20503;-81
2022/05/27 04:31:19;;;;;;;22.35;2.85;;;10.40;73.50;;;;;;4100048;28;20046;-82
2022/05/27 04:33:40;;;;;;;25.08;2.58;;;10.40;73.30;;;;;;4090870;28;20039;-80
2022/05/27 04:36:02;;;;;;;17.33;2.78;;;10.50;73.30;;;;;;4095420;28;20035;-82
2022/05/27 04:38:23;;;;;;;24.52;3.13;;;10.50;73.10;;;;;;4098505;28;20093;-81
2022/05/27 04:40:44;;;;;;;20.10;2.50;;;10.60;72.90;;;;;;4098959;28;20042;-81
2022/05/27 04:43:06;;;;;;;24.52;2.80;;;10.70;72.80;;;;;;4098147;28;20099;-79
2022/05/27 04:45:27;;;;;;;22.40;2.75;;;10.70;72.70;;;;;;4094953;28;20358;-81
2022/05/27 04:47:48;;;;;;;19.60;2.58;;;10.80;72.70;;;;;;4095773;28;20038;-82
2022/05/27 04:50:11;;;;;;;14.57;1.88;;;10.80;72.40;;;;;;4096743;28;20054;-81
2022/05/27 04:52:11;;;;;;;14.45;2.53;;;10.90;72.30;;;;;;4099205;28;20042;-82
2022/05/27 04:54:12;;;;;;;23.17;2.40;;;10.90;72.10;;;;;;4100297;28;20035;-82
2022/05/27 04:56:13;;;;;;;19.00;2.47;;;11.00;72.00;;;;;;4100079;28;20054;-82
2022/05/27 04:58:13;;;;;;;18.95;2.58;;;11.10;72.00;;;;;;4096604;28;20114;-82
2022/05/27 05:00:21;;;;;;;15.43;2.42;;;11.10;71.80;;;;;;4095827;28;20497;-82
2022/05/27 05:02:23;;;;;;;11.70;2.72;;;11.20;71.60;;;;;;4095297;29;20129;-81
2022/05/27 05:04:24;;;;;;;20.48;3.05;;;11.20;71.20;;;;;;4091874;28;21629;-83
2022/05/27 05:06:45;;;;;;;20.40;2.80;;;11.20;71.00;;;;;;4092705;28;20114;-83
2022/05/27 05:09:05;;;;;;;19.60;2.92;;;11.40;70.60;;;;;;4090133;28;20039;-83
2022/05/27 05:11:26;;;;;;;21.58;2.70;;;11.30;70.20;;;;;;4089439;28;20039;-83
2022/05/27 05:13:46;;;;;;;17.67;2.63;;;11.40;70.00;;;;;;4093448;28;20035;-83
2022/05/27 05:16:08;;;;;;;18.17;2.85;;;11.50;69.40;;;;;;4094024;28;20209;-83
2022/05/27 05:18:29;;;;;;;19.63;2.92;;;11.50;69.40;;;;;;4099077;28;20047;-83
2022/05/27 05:20:50;;;;;;;21.80;2.80;;;11.50;68.90;;;;;;4101086;28;20035;-83
2022/05/27 05:23:10;;;;;;;16.00;3.13;;;11.60;68.40;;;;;;4098311;28;20043;-83
2022/05/27 05:25:33;;;;;;;20.27;2.83;;;11.60;68.30;;;;;;4095766;28;20382;-82
2022/05/27 05:27:54;;;;;;;17.83;3.03;;;11.70;68.20;;;;;;4102120;28;20034;-83
2022/05/27 05:30:17;;;;;;;22.20;2.97;;;11.70;68.00;;;;;;4115654;28;20027;-82
2022/05/27 05:32:38;;;;;;;18.27;3.23;;;11.70;68.00;;;;;;4100387;28;20035;-84
2022/05/27 05:34:59;;;;;;;21.85;2.63;;;11.80;67.80;;;;;;4098765;28;20278;-82
2022/05/27 05:37:20;;;;;;;25.60;3.33;;;11.80;67.50;;;;;;4102700;28;20058;-82
2022/05/27 05:39:30;;;;;;;18.92;2.55;;;11.90;67.20;;;;;;4095671;28;21216;-83
2022/05/27 05:41:41;;;;;;;21.33;3.33;;;11.90;67.40;;;;;;4101229;28;20027;-83
2022/05/27 05:44:01;;;;;;;22.35;2.63;;;11.90;66.90;;;;;;4098790;28;20039;-82
2022/05/27 05:46:24;;;;;;;23.17;3.42;;;12.00;67.10;;;;;;4113024;28;20045;-83
2022/05/27 05:48:44;;;;;;;17.27;3.67;;;12.00;67.00;;;;;;4094620;28;20053;-83
2022/05/27 05:51:05;;;;;;;22.95;3.47;;;12.10;66.60;;;;;;4097048;28;20027;-82
2022/05/27 05:53:25;;;;;;;30.33;3.30;;;12.10;66.40;;;;;;4094136;28;20031;-82
2022/05/27 05:55:46;;;;;;;19.63;2.90;;;12.10;65.90;;;;;;4094977;28;20039;-82
2022/05/27 05:58:07;;;;;;;23.48;3.00;;;12.20;66.00;;;;;;4098808;28;20559;-83
2022/05/27 06:00:12;;;;;;;21.30;2.97;;;12.30;66.00;;;;;;4096753;28;20035;-82
2022/05/27 06:02:33;;;;;;;22.08;2.83;;;12.30;65.70;;;;;;4098089;28;20035;-83
2022/05/27 06:04:53;;;;;;;22.33;3.45;;;12.30;64.80;;;;;;4098264;28;20031;-84
2022/05/27 06:07:15;;;;;;;23.95;3.42;;;12.40;64.90;;;;;;4094830;28;20035;-83
2022/05/27 06:09:36;;;;;;;22.50;3.28;;;12.40;64.60;;;;;;4094178;28;20237;-82
2022/05/27 06:12:02;;;;;;;25.90;3.63;;;12.40;63.70;;;;;;4106282;28;20079;-83
2022/05/27 06:14:23;;;;;;;32.08;3.75;;;12.50;63.80;;;;;;4096832;28;20099;-83
2022/05/27 06:16:43;;;;;;;25.33;3.13;;;12.50;63.90;;;;;;4094747;28;20592;-83
2022/05/27 06:18:46;;;;;;;19.92;3.03;;;12.50;63.00;;;;;;4095708;28;20039;-82
2022/05/27 06:20:46;;;;;;;21.70;3.20;;;12.60;63.00;;;;;;4095817;28;20123;-84
2022/05/27 06:23:08;;;;;;;25.25;3.53;;;12.60;62.50;;;;;;4092886;28;20098;-82
2022/05/27 06:25:12;;;;;;;20.63;3.17;;;12.70;62.80;;;;;;4097749;28;20031;-84
2022/05/27 06:27:13;;;;;;;20.67;2.70;;;12.70;62.00;;;;;;4092335;28;20039;-84
2022/05/27 06:34:24;;;;;;;28.23;3.05;;;12.80;60.70;;;;;;4095443;28;20043;-84
2022/05/27 06:36:45;;;;;;;22.88;2.97;;;12.90;60.80;;;;;;4094746;28;20462;-83
2022/05/27 06:38:46;;;;;;;20.55;3.85;;;12.90;59.70;;;;;;4097303;28;20049;-84
2022/05/27 06:40:47;;;;;;;22.95;2.97;;;12.90;59.80;;;;;;4092801;28;20046;-83
2022/05/27 06:43:07;;;;;;;19.55;2.47;;;12.90;59.80;;;;;;4092531;28;20063;-83
2022/05/27 06:45:11;;;;;;;13.98;2.70;;;13.00;59.30;;;;;;4105630;28;20030;-83
2022/05/27 06:47:13;;;;;;;31.42;3.42;;;13.00;58.80;;;;;;4099221;28;20553;-83
2022/05/27 06:49:15;;;;;;;12.65;2.95;;;13.00;58.40;;;;;;4106691;28;20031;-83
2022/05/27 06:51:18;;;;;;;22.70;3.03;;;13.10;58.50;;;;;;4118773;28;20038;-84
2022/05/27 06:53:18;;;;;;;16.60;2.83;;;13.10;58.90;;;;;;4098625;28;20391;-84
2022/05/27 06:55:20;;;;;;;22.73;2.97;;;13.10;58.60;;;;;;4102940;28;20019;-84
2022/05/27 06:57:21;;;;;;;19.20;3.22;;;13.10;57.50;;;;;;4101845;28;20023;-84
2022/05/27 06:59:22;;;;;;;23.02;3.00;;;13.20;57.50;;;;;;4098713;28;20062;-84
2022/05/27 07:01:23;;;;;;;17.35;3.00;;;13.20;56.80;;;;;;4096894;28;20035;-86
2022/05/27 07:03:24;;;;;;;15.85;2.55;;;13.20;55.70;;;;;;4102264;28;21340;-85
2022/05/27 07:05:25;;;;;;;15.50;3.05;;;13.20;55.90;;;;;;4095132;28;20027;-84
2022/05/27 07:07:29;;;;;;;20.75;3.13;;;13.20;56.10;;;;;;4112086;28;20039;-83
2022/05/27 07:09:35;;;;;;;21.40;2.72;;;13.20;56.40;;;;;;4126224;28;20035;-86
2022/05/27 07:11:37;;;;;;;21.77;3.30;;;13.30;55.80;;;;;;4128209;28;20211;-85
2022/05/27 07:13:38;;;;;;;18.23;2.80;;;13.30;55.80;;;;;;4093835;28;20031;-84
2022/05/27 07:15:38;;;;;;;18.40;2.58;;;13.30;54.80;;;;;;4094444;28;20023;-85
2022/05/27 07:17:39;;;;;;;18.08;2.55;;;13.40;54.90;;;;;;4095808;28;20586;-84
2022/05/27 07:19:41;;;;;;;12.02;2.50;;;13.40;54.10;;;;;;4100333;28;20480;-84
2022/05/27 07:21:44;;;;;;;12.60;2.53;;;13.40;53.70;;;;;;4100939;28;20023;-85
2022/05/27 07:23:45;;;;;;;15.10;2.70;;;13.40;54.00;;;;;;4113366;28;20084;-84
2022/05/27 07:25:46;;;;;;;14.63;2.85;;;13.40;54.10;;;;;;4100896;28;20033;-84
2022/05/27 07:27:47;;;;;;;15.55;2.70;;;13.40;53.50;;;;;;4094004;28;20039;-85
2022/05/27 07:29:47;;;;;;;16.08;2.50;;;13.40;53.20;;;;;;4091320;28;20039;-85
2022/05/27 07:31:48;;;;;;;16.35;2.45;;;13.50;53.60;;;;;;4093180;28;20027;-84
2022/05/27 07:33:49;;;;;;;15.75;2.13;;;13.50;53.60;;;;;;4088092;28;20103;-84
2022/05/27 07:35:50;;;;;;;15.23;2.40;;;13.50;54.20;;;;;;4092428;28;20039;-84
2022/05/27 07:37:51;;;;;;;17.35;2.45;;;13.50;54.60;;;;;;4091802;28;20031;-84
2022/05/27 07:39:51;;;;;;;14.70;2.88;;;13.60;55.20;;;;;;4094883;28;20485;-84
2022/05/27 07:41:52;;;;;;;14.13;2.30;;;13.60;55.40;;;;;;4096613;28;20781;-84
2022/05/27 07:43:53;;;;;;;16.55;2.80;;;13.60;55.40;;;;;;4097787;28;20461;-83
2022/05/27 07:45:54;;;;;;;17.92;2.70;;;13.60;55.20;;;;;;4088734;28;20335;-85
2022/05/27 07:47:54;;;;;;;17.20;2.55;;;13.60;54.70;;;;;;4094033;28;20031;-85
2022/05/27 07:49:55;;;;;;;18.67;2.75;;;13.60;54.60;;;;;;4094418;28;20023;-85
2022/05/27 07:51:56;;;;;;;9.60;2.08;;;13.60;55.00;;;;;;4096994;28;20041;-84
2022/05/27 07:53:57;;;;;;;14.85;2.22;;;13.60;54.60;;;;;;4105270;28;20496;-82
2022/05/27 07:55:57;;;;;;;14.75;2.58;;;13.50;53.20;;;;;;4093984;28;20077;-83
2022/05/27 07:57:58;;;;;;;13.82;2.60;;;13.60;52.70;;;;;;4112136;28;20429;-85
2022/05/27 08:00:08;;;;;;;13.73;2.50;;;13.60;52.70;;;;;;4094354;28;20063;-83
2022/05/27 08:02:08;;;;;;;15.60;2.53;;;13.50;52.50;;;;;;4081973;29;20034;-87
2022/05/27 08:04:09;;;;;;;13.10;2.00;;;13.60;52.90;;;;;;4094315;28;20067;-85
2022/05/27 08:06:10;;;;;;;14.25;2.30;;;13.60;53.40;;;;;;4101531;28;20409;-85
2022/05/27 08:08:11;;;;;;;12.77;2.47;;;13.60;53.80;;;;;;4109618;28;20027;-85
2022/05/27 08:10:14;;;;;;;14.98;2.45;;;13.60;54.20;;;;;;4096547;28;20231;-85
2022/05/27 08:12:15;;;;;;;;;;;13.60;54.00;;;;;;4095148;28;20028;-83
2022/05/27 08:14:16;;;;;;;20.98;2.70;;;13.70;54.40;;;;;;4111810;28;19910;-85
2022/05/27 08:16:17;;;;;;;19.35;3.30;;;13.60;54.60;;;;;;4089285;28;20035;-84
2022/05/27 08:18:18;;;;;;;20.90;2.75;;;13.70;54.40;;;;;;4093742;28;20063;-85
2022/05/27 08:20:24;;;;;;;15.13;2.53;;;13.70;53.60;;;;;;4087680;28;20503;-83
2022/05/27 08:22:28;;;;;;;12.18;1.98;;;13.70;53.60;;;;;;4095918;28;20032;-84
2022/05/27 08:24:28;;;;;;;20.80;2.35;;;13.70;53.30;;;;;;4111427;28;21735;-84
2022/05/27 08:26:29;;;;;;;20.20;2.88;;;13.70;53.90;;;;;;4092660;28;20063;-85
2022/05/27 08:28:30;;;;;;;20.02;2.70;;;13.80;53.50;;;;;;4093917;28;20035;-84
2022/05/27 08:30:34;;;;;;;13.63;2.80;;;13.80;53.80;;;;;;4094919;28;20132;-85
2022/05/27 08:32:34;;;;;;;32.03;2.58;;;13.90;53.90;;;;;;4105033;28;20035;-83
2022/05/27 08:39:16;;;;;;;9.07;1.75;;;14.00;53.30;;;;;;4090497;28;20031;-85
2022/05/27 08:41:19;;;;;;;11.02;2.05;;;14.10;52.70;;;;;;4092132;28;20812;-85
2022/05/27 08:43:20;;;;;;;16.75;2.15;;;14.10;52.30;;;;;;4104564;28;20026;-85
2022/05/27 08:45:44;;;;;;;15.23;2.08;;;14.20;52.40;;;;;;4094364;28;20194;-85
2022/05/27 08:48:07;;;;;;;11.75;1.58;;;14.20;52.10;;;;;;4071881;28;20040;-87
2022/05/27 08:50:38;;;;;;;8.37;1.80;;;14.20;51.10;;;;;;4091061;28;20518;-85
2022/05/27 08:52:49;;;;;;;12.15;2.00;;;14.30;51.50;;;;;;4090375;28;20287;-87
2022/05/27 08:54:52;;;;;;;11.23;1.98;;;14.40;52.00;;;;;;4107447;28;20089;-85
2022/05/27 08:59:31;;;;;;;11.75;1.92;;;14.40;50.60;;;;;;4092798;28;20090;-86
2022/05/27 09:01:36;;;;;;;19.20;2.45;;;14.30;50.00;;;;;;4086572;28;21148;-84
2022/05/27 09:03:44;;;;;;;10.45;1.50;;;14.30;49.20;;;;;;4104085;28;20023;-85
2022/05/27 09:05:56;;;;;;;18.35;2.08;;;14.20;49.70;;;;;;4089564;28;20413;-85
2022/05/27 09:08:04;;;;;;;10.65;1.83;;;14.20;50.50;;;;;;4090935;28;20031;-85
2022/05/27 09:10:10;;;;;;;13.85;2.65;;;14.20;51.00;;;;;;4094621;28;20046;-84
2022/05/27 09:12:25;;;;;;;20.02;2.30;;;14.20;51.90;;;;;;4090298;28;21055;-85
2022/05/27 09:14:33;;;;;;;18.17;2.22;;;14.20;52.60;;;;;;4105624;28;20041;-85
2022/05/27 09:16:56;;;;;;;10.98;1.40;;;14.20;52.60;;;;;;4097922;28;20397;-85
2022/05/27 09:19:12;;;;;;;9.18;1.48;;;14.20;51.30;;;;;;4088436;28;20027;-85
2022/05/27 09:21:21;;;;;;;10.80;2.00;;;14.20;52.10;;;;;;4090174;28;21179;-85
2022/05/27 09:23:55;;;;;;;10.38;1.17;;;14.00;52.50;;;;;;4091657;28;20539;-85
2022/05/27 09:26:14;;;;;;;11.20;1.42;;;13.90;52.90;;;;;;4095500;28;20027;-85
2022/05/27 09:28:27;;;;;;;14.02;2.25;;;13.70;53.80;;;;;;4091727;28;20572;-85
2022/05/27 09:30:32;;;;;;;12.57;2.10;;;13.50;54.80;;;;;;4095532;28;20043;-84
2022/05/27 09:32:48;;;;;;;14.13;1.70;;;13.40;56.00;;;;;;4088930;28;20070;-85
2022/05/27 09:34:49;;;;;;;16.45;2.20;;;13.30;56.80;;;;;;4093389;28;20090;-86
2022/05/27 09:36:55;;;;;;;22.70;2.75;;;13.20;57.70;;;;;;4094041;28;20031;-84
2022/05/27 09:39:00;;;;;;;14.77;2.58;;;13.20;58.50;;;;;;4091710;28;20299;-84
2022/05/27 09:41:26;;;;;;;21.70;3.53;;;13.20;59.00;;;;;;4092647;28;20034;-85
2022/05/27 09:43:50;;;;;;;16.60;2.42;;;13.20;60.30;;;;;;4090672;28;20051;-85
2022/05/27 09:45:56;;;;;;;13.77;2.47;;;13.30;60.30;;;;;;4088169;28;20494;-85
2022/05/27 09:48:00;;;;;;;11.35;2.42;;;13.40;59.70;;;;;;4092224;28;20481;-86
2022/05/27 09:50:08;;;;;;;17.67;3.03;;;13.50;59.20;;;;;;4091227;28;20046;-83
2022/05/27 09:52:08;;;;;;;20.52;3.78;;;13.60;58.80;;;;;;4089244;28;20036;-86
2022/05/27 09:54:26;;;;;;;23.83;5.70;;;13.60;58.30;;;;;;4094314;28;20043;-84
2022/05/27 09:56:43;;;;;;;17.52;3.20;;;13.60;57.80;;;;;;4105960;28;20473;-86
2022/05/27 09:58:46;;;;;;;11.85;2.30;;;13.60;58.00;;;;;;4096077;28;20023;-85
2022/05/27 10:00:51;;;;;;;22.48;2.65;;;13.60;58.20;;;;;;4092092;28;20028;-86
2022/05/27 10:02:52;;;;;;;15.43;2.50;;;13.50;58.80;;;;;;4093451;28;20055;-84
2022/05/27 10:04:53;;;;;;;12.85;2.70;;;13.50;59.20;;;;;;4089230;28;20098;-85
2022/05/27 10:07:03;;;;;;;14.32;1.67;;;13.50;59.70;;;;;;4096002;28;20019;-84
2022/05/27 10:09:27;;;;;;;13.98;2.17;;;13.50;58.40;;;;;;4100656;28;20050;-84
2022/05/27 10:11:47;;;;;;;12.40;2.55;;;13.60;57.50;;;;;;4094716;28;20035;-87
2022/05/27 10:14:12;;;;;;;15.23;1.80;;;13.60;56.50;;;;;;4112113;28;20030;-86
2022/05/27 10:16:22;;;;;;;7.90;1.80;;;13.70;56.00;;;;;;4095523;28;20086;-84
2022/05/27 10:18:25;;;;;;;15.82;2.40;;;13.70;55.80;;;;;;4097177;28;20020;-85
2022/05/27 10:20:34;;;;;;;10.02;1.83;;;13.80;56.20;;;;;;4094225;28;20059;-85
2022/05/27 10:22:35;;;;;;;8.48;1.58;;;13.80;57.20;;;;;;4092423;28;20031;-85
2022/05/27 10:24:43;;;;;;;12.90;2.03;;;13.70;56.90;;;;;;4095002;28;20158;-85
2022/05/27 10:26:44;;;;;;;15.00;1.95;;;13.60;57.20;;;;;;4093399;28;20035;-83
2022/05/27 10:28:54;;;;;;;16.42;2.58;;;13.50;57.60;;;;;;4087462;28;20501;-85
2022/05/27 10:31:15;;;;;;;20.88;2.67;;;13.40;58.50;;;;;;4092738;28;20062;-86
2022/05/27 10:33:34;;;;;;;12.80;2.70;;;13.30;61.10;;;;;;4096556;28;20035;-84
2022/05/27 10:35:35;;;;;;;19.08;2.95;;;13.30;62.10;;;;;;4109348;28;20238;-85
2022/05/27 10:38:18;;;;;;;15.60;2.28;;;13.30;62.90;;;;;;4095182;28;20053;-85
2022/05/27 10:40:36;;;;;;;20.73;2.65;;;13.30;62.90;;;;;;4112411;28;20022;-82
2022/05/27 10:43:02;;;;;;;18.02;2.25;;;13.20;62.30;;;;;;4100782;28;20087;-84
2022/05/27 10:45:17;;;;;;;16.15;2.47;;;13.20;62.20;;;;;;4110114;28;20026;-83
2022/05/27 10:47:43;;;;;;;14.05;2.30;;;13.20;61.80;;;;;;4089979;28;20576;-83
2022/05/27 10:50:14;;;;;;;16.23;2.55;;;13.10;61.80;;;;;;4092022;28;20039;-84
2022/05/27 10:52:36;;;;;;;13.05;2.22;;;13.00;60.70;;;;;;4093711;28;20030;-86
2022/05/27 10:54:48;;;;;;;11.95;2.22;;;13.00;60.50;;;;;;4094311;28;20039;-84
2022/05/27 11:02:16;;;;;;;14.05;1.90;;;12.70;62.20;;;;;;4095816;28;20027;-83
2022/05/27 11:04:54;;;;;;;20.52;1.45;;;12.60;61.80;;;;;;4073295;28;20046;-84
2022/05/27 11:07:16;;;;;;;8.60;1.13;;;12.50;62.00;;;;;;4092349;28;20297;-82
2022/05/27 11:09:42;;;;;;;10.65;1.30;;;12.50;61.80;;;;;;4092831;28;20074;-83
2022/05/27 11:12:08;;;;;;;9.80;1.40;;;12.50;61.70;;;;;;4090163;28;20028;-84
2022/05/27 11:16:35;;;;;;;9.35;1.98;;;12.50;61.10;;;;;;4091975;28;20223;-83
2022/05/27 11:19:14;;;;;;;12.85;2.58;;;12.50;61.30;;;;;;4090373;28;20032;-84
2022/05/27 11:21:29;;;;;;;10.52;1.92;;;12.60;61.60;;;;;;4092887;28;20126;-83
2022/05/27 11:24:14;;;;;;;23.38;2.80;;;12.60;61.30;;;;;;4096233;28;20019;-82
2022/05/27 11:26:14;;;;;;;;;;;12.70;61.50;;;;;;4073527;29;20032;-83
2022/05/27 11:28:40;;;;;;;4.22;0.95;;;12.70;61.20;;;;;;4073204;29;19919;-84
2022/05/27 11:31:20;;;;;;;6.40;1.35;;;12.60;59.70;;;;;;4066144;29;20044;-83
2022/05/27 11:33:41;;;;;;;8.88;1.17;;;12.40;59.40;;;;;;4077323;29;20039;-84
2022/05/27 11:36:10;;;;;;;5.47;1.25;;;12.40;59.90;;;;;;4075990;29;20071;-86
2022/05/27 11:38:37;;;;;;;9.35;1.27;;;12.30;61.00;;;;;;4073245;29;20165;-84
2022/05/27 11:41:05;;;;;;;11.05;1.45;;;12.20;62.40;;;;;;4077784;29;20047;-84
2022/05/27 11:43:28;;;;;;;10.55;1.58;;;12.20;63.60;;;;;;4053389;29;20031;-85
2022/05/27 11:45:31;;;;;;;10.35;1.98;;;12.20;64.50;;;;;;4074470;29;20028;-84
2022/05/27 11:48:09;;;;;;;15.57;1.95;;;12.20;64.70;;;;;;4075691;29;20051;-84
2022/05/27 11:50:28;;;;;;;11.05;2.10;;;12.20;64.90;;;;;;4045018;29;20033;-85
2022/05/27 11:52:49;;;;;;;5.10;1.40;;;12.20;64.90;;;;;;4071543;29;20032;-82
2022/05/27 11:55:01;;;;;;;4.60;0.98;;;12.20;64.70;;;;;;4065545;29;20767;-82
2022/05/27 11:57:43;;;;;;;11.25;1.27;;;12.10;62.70;;;;;;4080749;29;20046;-83
2022/05/27 11:59:51;;;;;;;10.52;1.63;;;12.00;62.50;;;;;;4076100;28;20042;-83
2022/05/27 12:02:00;;;;;;;6.40;0.90;;;11.90;62.70;;;;;;4095449;28;20681;-83
2022/05/27 12:04:33;;;;;;;7.05;1.35;;;11.80;63.40;;;;;;4094956;28;20034;-84
2022/05/27 12:07:13;;;;;;;8.45;1.55;;;11.80;64.00;;;;;;4106853;28;20572;-85